Lorient, France

22:55 CET le 06 décembre 2016 (GMT +0100)
Lann-Bihoue Navy | | Change Station

Alt. 144 ft 47.76 °N, 3.44 °W | Updated 25 minutes ago

Mist
Brume
52 ° F
Paraît 52 ° F
N
5
Vent Variable Vent de SE

Aujourd'hui
Haut(e) -- | Bas -- ° F
--% Risque de précip.
Hier
Haut(e) -- | Bas -- ° F
Precip. -- pouce
Pression 30.36 pouce
Visibilité 1.2 Miles terrestres
Nuages
Point de rosée 52 ° F
Humidité 100%
Précipitations 0.00 pouce
Profondeur de la couche neigeuse Non disponible.
8:47 AM 5:21 PM
Lune montante, 45% visible
METAR LFRH 062130Z AUTO 13004KT 2000 1400 R25/1900D R07/P2000 BR VV/// 11/11 Q1028 TEMPO 0300 FG
Pression 30.36 pouce
Visibilité 1.2 Miles terrestres
Nuages
Point de rosée 52 ° F
Humidité 100%
Précipitations 0.00 pouce
Profondeur de la couche neigeuse Non disponible.
8:47 AM 5:21 PM
Lune montante, 45% visible
METAR LFRH 062130Z AUTO 13004KT 2000 1400 R25/1900D R07/P2000 BR VV/// 11/11 Q1028 TEMPO 0300 FG

10-Day Weather Forecast

×

Almanac

Astronomie

Dec. 06, 2016 Lever Coucher
Temps réel
Crépuscule civil
Crépuscule nautique
Crépuscule astronomique
Lune
Durée de lumière visible
Longueur du jour
Tomorrow will be .
, % of the Moon is Illuminated

Extrêmes aujourd'hui

Country Highs Country Lows

Community

WunderPhotos

Upload Photos

1,956,033 Photos téléchargées !

WunderBlog® & News

Nearby

Qualité de l'air

  Qualité de l'air Indice de la qualité de l'air Polluant
Not available.

Épaisseur de neige

Station Depth Altitude

Activité sismique

Ville Distance Mag. Time & Date
Minimum magnitude displayed is 2.5.

Températures des eaux côtières

Lieu Température

Stations

Stations météo à proximité

Emplacement de la station Température Refroidissement éolien Point de rosée Humidité Vent Precip. Alt. Mise à jour Type